METAR stanice u blizini

 

LYBE - Beograd / Surčin, Srbija
Ažurirano: 05/07/2022 18:00
Thunderstorm, Few clouds
Thunderstorm, Few clouds
 Pravac vetra SSZ
Vetar: SSZ 24 km/h
Temperatura: 30°C
Heat Index: 31°C
Tačka rose: 17°C
Vlažnost: 46%
Pritisak: 1012 hPa
Pregled: Thunderstorm
Oblaci: Few Clouds
Vidljivost: 10 km
Cloud details: Few Clouds 1219 m
2022/07/05 16:00 LYBE 051600Z 33013KT 9999 TS FEW040CB 30/17 Q1012 TEMPO 5000 TSRA SCT030CB SCT040
LYBT - Beograd / Batajnica, Srbija
Ažurirano: 05/07/2022 18:00
Few Clouds
Few Clouds
 Pravac vetra ZSZ
Vetar: ZSZ 26 km/h
Temperatura: 29°C
Heat Index: 29°C
Tačka rose: 18°C
Vlažnost: 51%
Pritisak: 1012 hPa
Oblaci: Few Clouds
Vidljivost: 10 km
Cloud details: Few Clouds 1219 m
2022/07/05 16:00 LYBT 051600Z 30014KT 270V330 9999 FEW040TCU 29/18 Q1012 NOSIG
LYVR - Vršac, Srbija
Ažurirano: 05/07/2022 18:00
Vedro
Vedro
 Pravac vetra SZ
Vetar: SZ 20 km/h
Temperatura: 34°C
Tačka rose: 15°C
Vlažnost: 32%
Pritisak: 1010 hPa
Pregled: Vedro
Vidljivost: greater than 10 km
2022/07/05 16:00 LYVR 051600Z AUTO 32011KT CAVOK 34/15 Q1010
 
LYKV - Lađevci, Srbija
Ažurirano: 05/07/2022 18:00
Thunderstorm, Pretežno oblačno
Thunderstorm, Pretežno oblačno
 Pravac vetra J
Vetar: J 7 km/h, Maks.: 28 km/h
Temperatura: 27°C
Heat Index: 27°C
Tačka rose: 15°C
Vlažnost: 48%
Pritisak: 1014 hPa
Pregled: Thunderstorm
Oblaci: Mostly Cloudy
Vidljivost: 10 km
Cloud details: Partly Cloudy 914 m
Mostly Cloudy 1128 m
2022/07/05 16:00 LYKV 051600Z 17004G15KT 9999 TS SCT030CB BKN037 27/15 Q1014 TEMPO 19020KT 4000 TSRA SCT027CB BKN033
LYNI - Niš, Srbija
Ažurirano: 05/07/2022 18:00
Few Clouds
Few Clouds
 Pravac vetra S
Vetar: S 9 km/h
Temperatura: 33°C
Tačka rose: 14°C
Vlažnost: 32%
Pritisak: 1011 hPa
Oblaci: Few Clouds
Vidljivost: 10 km
Cloud details: Few Clouds 1372 m
2022/07/05 16:00 LYNI 051600Z 35005KT 330V090 9999 FEW045TCU 33/14 Q1011 TEMPO 31020G38KT 1500 TSRAGR SCT033CB
BKPR - Priština, Srbija
Ažurirano: 05/07/2022 18:00
Thunderstorm, Pretežno oblačno
Thunderstorm, Pretežno oblačno
 Pravac vetra SSI
Vetar: SSI 20 km/h
Temperatura: 25°C
Tačka rose: 16°C
Vlažnost: 57%
Pritisak: 1014 hPa
Pregled: Thunderstorm
Oblaci: Mostly Cloudy
Vidljivost: 10 km
Cloud details: Partly Cloudy 914 m
Mostly Cloudy 1524 m
2022/07/05 16:00 BKPR 051600Z 03011KT 9999 TS SCT030CB BKN050 25/16 Q1014 TEMPO 5000 TSRA
 
LHPP - Pecs / Pogany, Hungary
Ažurirano: 05/07/2022 17:45
Partly Cloudy
Partly Cloudy
 Pravac vetra SZ
Vetar: SZ 22 km/h
Temperatura: 24°C
Tačka rose: 17°C
Vlažnost: 65%
Pritisak: 1016 hPa
Oblaci: Partly Cloudy
Vidljivost: 10 km
Cloud details: Partly Cloudy 1006 m
2022/07/05 15:45 LHPP 051545Z AUTO 31012KT 270V340 9999 SCT033 24/17 Q1016
LHUD - Szeged, Hungary
Ažurirano: 04/07/2019 01:45
NOT Current
Vedro
Vedro
 Pravac vetra S
Vetar: S 7 km/h
Temperatura: 18°C
Tačka rose: 13°C
Vlažnost: 73%
Pritisak: 1019 hPa
Pregled: Vedro
Vidljivost: greater than 10 km
2019/07/03 23:45 LHUD 032345Z 35004KT CAVOK 18/13 Q1019
LRTR - Timisoara, Romania
Ažurirano: 05/07/2022 18:00
Vedro
Vedro
 Pravac vetra SZ
Vetar: SZ 28 km/h
Temperatura: 33°C
Tačka rose: 14°C
Vlažnost: 32%
Pritisak: 1011 hPa
Pregled: Vedro
Vidljivost: greater than 10 km
2022/07/05 16:00 LRTR 051600Z 31015KT CAVOK 33/14 Q1011 NOSIG
 
LRCV - Craiova, Romania
Ažurirano: 05/07/2022 18:00
Thunderstorm, Delimično oblačno
Thunderstorm, Delimično oblačno
 Pravac vetra SSI
Vetar: SSI 19 km/h
Temperatura: 31°C
Heat Index: 31°C
Tačka rose: 16°C
Vlažnost: 40%
Pritisak: 1012 hPa
Pregled: Thunderstorm
Oblaci: Partly Cloudy
Vidljivost: 10 km
Cloud details: Partly Cloudy 1463 m
2022/07/05 16:00 LRCV 051600Z 03010KT 9999 TS SCT048CB 31/16 Q1012
LBSF - Sofia, Bulgaria
Ažurirano: 05/07/2022 18:00
Few Clouds
Few Clouds
 Pravac vetra IJI
Vetar: IJI 24 km/h
Temperatura: 30°C
Heat Index: 29°C
Tačka rose: 15°C
Vlažnost: 40%
Pritisak: 1014 hPa
Oblaci: Few Clouds
Vidljivost: 10 km
Cloud details: Few Clouds 2134 m
2022/07/05 16:00 LBSF 051600Z 12013KT 9999 FEW070 30/15 Q1014 NOSIG
LWSK - Skoplje, Makedonija
Ažurirano: 05/07/2022 18:00
Nearby thunderstorm, Delimično oblačno
Nearby thunderstorm, Delimično oblačno
 Pravac vetra S
Vetar: S 19 km/h
Temperatura: 34°C
Tačka rose: 13°C
Vlažnost: 28%
Pritisak: 1011 hPa
Pregled: Nearby Thunderstorm
Oblaci: Partly Cloudy
Vidljivost: 10 km
Cloud details: Few Clouds 1219 m
Partly Cloudy 2438 m
2022/07/05 16:00 LWSK 051600Z 01010KT 350V050 9999 VCTS FEW040CB SCT080 34/13 Q1011 NOSIG
 
LYPG - Podgorica, Crna Gora
Ažurirano: 05/07/2022 18:00
Few Clouds
Few Clouds
 Pravac vetra JJZ
Vetar: JJZ 19 km/h
Temperatura: 36°C
Tačka rose: 15°C
Vlažnost: 28%
Pritisak: 1009 hPa
Oblaci: Few Clouds
Vidljivost: 10 km
Cloud details: Few Clouds 1524 m
2022/07/05 16:00 LYPG 051600Z 21010KT 180V240 9999 FEW050 36/15 Q1009 NOSIG
LQSA - Sarajevo, Bosna i Hercegovina
Ažurirano: 05/07/2022 18:00
Light thunderstorm, Padavine, Pretežno oblačno
Light thunderstorm, Padavine, Pretežno oblačno
 Pravac vetra varies
Vetar: varies 4 km/h
Temperatura: 19°C
Tačka rose: 17°C
Vlažnost: 88%
Pritisak: 1018 hPa
Pregled: Light thunderstorm, Padavine
Oblaci: Mostly Cloudy
Vidljivost: 10 km
Cloud details: Few Clouds 1067 m
Mostly Cloudy 1372 m
2022/07/05 16:00 LQSA 051600Z VRB02KT 9999 -TSRA FEW035CB BKN045 19/17 Q1018 NOSIG
LDOS - Osijek, Hrvatksa
Ažurirano: 05/07/2022 18:00
Few Clouds
Few Clouds
 Pravac vetra S
Vetar: S 19 km/h
Temperatura: 27°C
Heat Index: 28°C
Tačka rose: 18°C
Vlažnost: 58%
Pritisak: 1014 hPa
Oblaci: Few Clouds
Vidljivost: 10 km
Cloud details: Few Clouds 1372 m
2022/07/05 16:00 LDOS 051600Z 35010KT 9999 FEW045 27/18 Q1014